Time;durP1;ratioP1;P1;durP2;ratioP2;P2;SDS_P1;SDS_P2;PMS_P1;PMS_P2;Temp;Humidity;BMP_temperature;BMP_pressure;BME280_temperature;BME280_humidity;BME280_pressure;Samples;Min_cycle;Max_cycle;Signal;HPM_P1;HPM_P2
2023/03/13 00:03:14;;;;;;;;;;;;;;;;;;;;;
2023/03/13 00:05:55;;;;;;;10.07;1.90;;;8.80;99.90;;;;;;6037210;23;20054;-90
2023/03/13 00:09:27;;;;;;;;;;;;;;;;;;;;;
2023/03/13 00:13:00;;;;;;;8.88;1.48;;;8.50;99.90;;;;;;6065897;23;20026;-90
2023/03/13 00:22:55;;;;;;;15.40;2.35;;;8.60;99.90;;;;;;6094185;23;20085;-88
2023/03/13 00:25:24;;;;;;;19.70;2.38;;;8.40;99.90;;;;;;6069964;23;20516;-88
2023/03/13 00:27:58;;;;;;;17.80;2.70;;;8.60;99.90;;;;;;6094253;23;20014;-89
2023/03/13 00:30:29;;;;;;;12.25;1.88;;;8.50;99.90;;;;;;6131349;23;20039;-88
2023/03/13 00:32:58;;;;;;;18.80;2.60;;;8.50;99.90;;;;;;6151955;23;20108;-89
2023/03/13 00:35:26;;;;;;;16.67;2.50;;;8.50;99.90;;;;;;6151189;23;20101;-89
2023/03/13 00:37:57;;;;;;;22.85;3.47;;;8.60;99.90;;;;;;6151899;23;20022;-89
2023/03/13 00:40:35;;;;;;;16.33;2.63;;;8.60;99.90;;;;;;6128201;23;20025;-89
2023/03/13 00:46:06;;;;;;;14.85;2.80;;;8.50;99.90;;;;;;6152539;23;20033;-89
2023/03/13 00:48:39;;;;;;;9.85;2.33;;;8.50;99.90;;;;;;6151184;23;20053;-87
2023/03/13 00:51:10;;;;;;;15.30;2.30;;;8.50;99.90;;;;;;6140409;23;20029;-89
2023/03/13 00:53:36;;;;;;;13.45;3.05;;;7.90;99.90;;;;;;6244409;23;20016;-89
2023/03/13 00:56:10;;;;;;;12.93;2.45;;;8.50;99.90;;;;;;6245351;22;20024;-90
2023/03/13 00:58:44;;;;;;;15.30;2.75;;;9.20;99.90;;;;;;6244123;23;20012;-90
2023/03/13 01:01:16;;;;;;;13.10;2.42;;;8.50;99.90;;;;;;6242685;23;20463;-89
2023/03/13 01:03:45;;;;;;;17.15;2.50;;;8.60;99.90;;;;;;6244292;23;20020;-88
2023/03/13 01:06:14;;;;;;;16.08;2.42;;;8.40;99.90;;;;;;6245718;22;20020;-89
2023/03/13 01:08:40;;;;;;;12.07;2.38;;;8.50;99.90;;;;;;6244087;23;20058;-89
2023/03/13 01:11:13;;;;;;;9.93;2.33;;;8.40;99.90;;;;;;6244349;23;20055;-89
2023/03/13 01:13:42;;;;;;;14.70;3.55;;;8.50;99.90;;;;;;6244798;23;20095;-90
2023/03/13 01:16:25;;;;;;;19.35;2.50;;;8.70;99.90;;;;;;6240791;23;20016;-90
2023/03/13 01:19:00;;;;;;;17.05;3.50;;;8.50;99.90;;;;;;6243436;23;20095;-90
2023/03/13 01:21:29;;;;;;;28.60;4.43;;;8.60;99.90;;;;;;6244080;23;20020;-90
2023/03/13 01:24:08;;;;;;;15.13;3.30;;;8.60;99.90;;;;;;6243995;23;20020;-91
2023/03/13 01:26:39;;;;;;;18.35;3.38;;;8.80;99.90;;;;;;6244563;22;20012;-89
2023/03/13 01:29:17;;;;;;;15.15;2.60;;;8.50;99.90;;;;;;6242645;23;20024;-89
2023/03/13 01:39:00;;;;;;;13.82;2.42;;;8.50;99.90;;;;;;6243664;23;20024;-90
2023/03/13 01:41:34;;;;;;;10.13;2.42;;;8.50;99.90;;;;;;6132111;23;20017;-89
2023/03/13 01:44:26;;;;;;;13.85;2.70;;;9.30;99.90;;;;;;6157157;23;20021;-90
2023/03/13 01:46:54;;;;;;;12.10;2.28;;;8.60;99.90;;;;;;6182249;23;20025;-89
2023/03/13 01:49:33;;;;;;;13.50;3.08;;;8.50;99.90;;;;;;6157143;23;20033;-89
2023/03/13 01:52:29;;;;;;;18.17;3.58;;;8.90;99.90;;;;;;6184416;23;20025;-90
2023/03/13 01:55:07;;;;;;;16.13;2.45;;;8.00;99.90;;;;;;6160013;23;20021;-89
2023/03/13 01:57:39;;;;;;;8.70;1.70;;;8.40;99.90;;;;;;6159225;23;20049;-90
2023/03/13 02:00:18;;;;;;;16.15;2.10;;;8.80;99.90;;;;;;6159092;23;20028;-89
2023/03/13 02:02:59;;;;;;;9.82;2.33;;;8.30;99.90;;;;;;6159531;23;20456;-90
2023/03/13 02:05:27;;;;;;;12.27;2.58;;;8.30;99.90;;;;;;6159179;23;20100;-89
2023/03/13 02:08:06;;;;;;;10.95;2.65;;;8.40;99.90;;;;;;6184342;23;20017;-90
2023/03/13 02:10:37;;;;;;;12.73;3.03;;;8.30;99.90;;;;;;6183800;23;20020;-88
2023/03/13 02:13:05;;;;;;;10.35;2.63;;;8.40;99.90;;;;;;6159100;23;20096;-90
2023/03/13 02:15:36;;;;;;;11.93;2.00;;;8.30;99.90;;;;;;6159101;23;20075;-90
2023/03/13 02:18:05;;;;;;;17.60;2.28;;;8.30;99.90;;;;;;6218162;23;20020;-90
2023/03/13 02:20:31;;;;;;;7.38;1.85;;;8.50;99.90;;;;;;6247502;22;20043;-89
2023/03/13 02:23:20;;;;;;;10.10;2.63;;;8.70;99.90;;;;;;6245223;23;20016;-89
2023/03/13 02:25:55;;;;;;;11.07;2.30;;;8.40;99.90;;;;;;6183676;23;20036;-91
2023/03/13 02:28:32;;;;;;;12.50;2.70;;;8.30;99.90;;;;;;6183975;23;20025;-89
2023/03/13 02:30:58;;;;;;;13.52;2.30;;;8.00;99.90;;;;;;6159079;23;20017;-90
2023/03/13 02:33:43;;;;;;;11.98;2.25;;;8.30;99.90;;;;;;6182835;23;20078;-90
2023/03/13 02:36:47;;;;;;;;;;;;;;;;;;;;;
2023/03/13 02:39:28;;;;;;;10.80;2.25;;;8.70;99.90;;;;;;6152325;23;20425;-90
2023/03/13 02:49:09;;;;;;;11.05;1.80;;;8.00;99.90;;;;;;6064369;23;20037;-90
2023/03/13 02:56:21;;;;;;;8.25;1.60;;;8.40;99.90;;;;;;5900927;24;20037;-90
2023/03/13 03:20:23;;;;;;;3.63;0.90;;;8.90;99.90;;;;;;6284885;22;1564470;-89
2023/03/13 03:25:57;;;;;;;2.42;0.90;;;8.60;99.90;;;;;;6195992;23;20024;-87
2023/03/13 03:28:23;;;;;;;3.28;0.93;;;8.50;99.90;;;;;;6195635;23;20020;-86
2023/03/13 03:31:11;;;;;;;2.53;0.80;;;8.80;99.90;;;;;;6221192;23;20088;-87
2023/03/13 03:33:40;;;;;;;4.68;0.70;;;8.70;99.90;;;;;;6195975;23;20020;-86
2023/03/13 03:36:15;;;;;;;3.22;1.00;;;8.90;99.90;;;;;;6220949;23;20016;-86
2023/03/13 03:38:46;;;;;;;2.38;0.93;;;8.90;99.90;;;;;;6196142;23;20016;-86
2023/03/13 03:41:16;;;;;;;4.70;1.00;;;9.20;99.90;;;;;;6220894;23;20046;-86
2023/03/13 03:43:52;;;;;;;8.68;1.05;;;8.90;99.90;;;;;;6221357;23;20013;-87
2023/03/13 03:46:17;;;;;;;2.20;0.75;;;8.90;99.90;;;;;;6220854;23;20061;-86
2023/03/13 03:48:43;;;;;;;3.17;0.90;;;8.90;99.90;;;;;;6195235;23;20024;-87
2023/03/13 03:51:26;;;;;;;2.38;0.93;;;8.90;99.90;;;;;;6195914;23;20016;-87
2023/03/13 03:53:55;;;;;;;2.80;0.80;;;9.00;99.90;;;;;;6221129;23;20222;-86
2023/03/13 03:56:21;;;;;;;1.40;0.73;;;8.90;99.90;;;;;;6195411;23;20057;-86
2023/03/13 03:58:47;;;;;;;3.17;1.77;;;9.00;99.90;;;;;;6195590;23;20020;-87
2023/03/13 04:01:12;;;;;;;3.42;1.17;;;9.10;99.90;;;;;;6195667;23;20016;-87
2023/03/13 04:03:38;;;;;;;4.10;0.90;;;9.10;99.90;;;;;;6323284;22;20076;-87
2023/03/13 04:06:05;;;;;;;4.05;0.73;;;9.10;99.90;;;;;;6345781;22;20326;-87
2023/03/13 04:08:32;;;;;;;2.60;0.80;;;9.20;99.90;;;;;;6345424;22;20022;-87
2023/03/13 04:11:03;;;;;;;3.55;0.90;;;9.20;99.90;;;;;;6345082;22;20014;-86
2023/03/13 04:13:29;;;;;;;1.63;0.70;;;9.20;99.90;;;;;;6347107;22;20097;-86
2023/03/13 04:15:54;;;;;;;2.25;0.80;;;9.10;99.90;;;;;;6345140;22;20080;-86
2023/03/13 04:18:23;;;;;;;2.17;0.60;;;9.20;99.90;;;;;;6346577;22;20011;-87
2023/03/13 04:21:01;;;;;;;2.42;0.75;;;9.30;99.90;;;;;;6338670;22;20019;-87
2023/03/13 04:23:27;;;;;;;1.27;0.60;;;9.30;99.90;;;;;;6340165;22;20021;-87
2023/03/13 04:25:53;;;;;;;2.05;0.52;;;9.50;99.90;;;;;;6337908;22;20118;-88
2023/03/13 04:28:21;;;;;;;2.35;0.60;;;9.30;99.90;;;;;;6338352;22;20011;-87
2023/03/13 04:30:57;;;;;;;1.38;0.50;;;9.40;99.90;;;;;;6311943;22;20080;-88
2023/03/13 04:33:26;;;;;;;2.47;0.73;;;9.50;99.90;;;;;;6312127;22;20011;-87
2023/03/13 04:35:52;;;;;;;1.30;0.70;;;9.50;99.90;;;;;;6339818;22;20456;-88
2023/03/13 04:38:17;;;;;;;2.75;1.20;;;9.50;99.90;;;;;;6337850;22;20014;-88
2023/03/13 04:40:46;;;;;;;2.50;1.50;;;9.70;99.90;;;;;;6337655;22;20015;-88
2023/03/13 04:43:14;;;;;;;4.72;1.75;;;9.80;99.90;;;;;;6339686;22;20021;-88
2023/03/13 04:45:48;;;;;;;2.85;1.77;;;9.80;99.90;;;;;;6339823;22;20022;-89
2023/03/13 04:48:14;;;;;;;3.70;1.90;;;9.80;99.90;;;;;;6338037;22;20018;-88
2023/03/13 04:50:53;;;;;;;5.70;2.25;;;9.90;99.90;;;;;;6311956;22;20501;-87
2023/03/13 04:53:19;;;;;;;4.85;2.17;;;9.90;99.90;;;;;;6337839;22;20015;-88
2023/03/13 04:55:48;;;;;;;4.57;2.65;;;10.00;99.90;;;;;;6339674;22;20040;-88
2023/03/13 04:58:14;;;;;;;6.38;2.75;;;10.10;99.90;;;;;;6339606;22;20072;-88
2023/03/13 05:00:43;;;;;;;4.80;2.63;;;10.10;99.90;;;;;;6339621;22;20433;-87
2023/03/13 05:03:09;;;;;;;3.72;2.35;;;10.10;99.90;;;;;;6339476;22;20018;-89
2023/03/13 05:05:35;;;;;;;8.90;3.17;;;10.50;99.90;;;;;;6339310;22;20015;-88
2023/03/13 05:08:09;;;;;;;5.40;2.95;;;10.20;99.90;;;;;;6337095;22;20453;-88
2023/03/13 05:10:40;;;;;;;9.13;3.13;;;10.00;99.90;;;;;;6339510;22;20038;-88
2023/03/13 05:13:13;;;;;;;6.05;2.55;;;10.20;99.90;;;;;;6339382;22;20376;-88
2023/03/13 05:15:41;;;;;;;5.35;2.65;;;10.20;99.90;;;;;;6311544;22;20026;-87
2023/03/13 05:18:11;;;;;;;4.70;2.03;;;10.30;99.90;;;;;;6338631;22;20003;-88
2023/03/13 05:20:42;;;;;;;5.22;2.13;;;10.30;99.90;;;;;;6311127;22;20048;-88
2023/03/13 05:23:10;;;;;;;7.65;2.20;;;10.40;99.90;;;;;;6337427;22;20019;-88
2023/03/13 05:25:36;;;;;;;4.80;2.50;;;10.40;99.90;;;;;;6337914;22;20022;-89
2023/03/13 05:28:04;;;;;;;5.78;3.00;;;10.40;99.90;;;;;;6337053;22;20076;-86
2023/03/13 05:30:30;;;;;;;8.27;3.22;;;10.40;99.90;;;;;;6337407;22;20030;-88
2023/03/13 05:32:56;;;;;;;8.20;3.30;;;10.50;99.90;;;;;;6337525;22;20329;-87
2023/03/13 05:35:25;;;;;;;6.38;2.80;;;10.60;99.90;;;;;;6338516;22;20019;-89
2023/03/13 05:37:50;;;;;;;7.63;3.00;;;10.70;99.90;;;;;;6337439;22;20013;-87
2023/03/13 05:40:19;;;;;;;4.43;2.03;;;10.70;99.90;;;;;;6337286;22;20054;-88
2023/03/13 05:42:50;;;;;;;9.63;3.70;;;10.80;99.90;;;;;;6337996;22;20349;-87
2023/03/13 05:45:16;;;;;;;7.57;1.77;;;11.20;99.90;;;;;;6337077;22;20025;-87
2023/03/13 05:47:46;;;;;;;7.00;1.70;;;10.80;99.90;;;;;;6336777;22;20015;-88
2023/03/13 05:50:12;;;;;;;8.75;2.45;;;10.80;99.90;;;;;;6337672;22;20436;-87
2023/03/13 05:52:37;;;;;;;5.45;1.85;;;10.80;99.90;;;;;;6336999;22;20007;-87
2023/03/13 05:55:04;;;;;;;8.18;2.22;;;10.80;99.90;;;;;;6337881;22;20334;-87
2023/03/13 05:57:32;;;;;;;5.88;1.60;;;10.80;99.90;;;;;;6337269;22;20014;-88
2023/03/13 05:59:58;;;;;;;4.22;1.50;;;10.60;99.90;;;;;;6337622;22;20045;-87
2023/03/13 06:02:24;;;;;;;8.55;1.70;;;10.90;99.90;;;;;;6338924;22;20014;-88
2023/03/13 06:04:52;;;;;;;8.80;3.67;;;10.80;99.90;;;;;;6337215;22;20007;-87
2023/03/13 06:07:18;;;;;;;5.70;1.70;;;10.80;99.90;;;;;;6337027;22;20341;-88
2023/03/13 06:09:44;;;;;;;4.88;1.60;;;10.80;99.90;;;;;;6337018;22;20308;-87
2023/03/13 06:12:14;;;;;;;7.45;2.20;;;10.80;99.90;;;;;;6337118;22;20042;-88
2023/03/13 06:14:40;;;;;;;6.65;1.90;;;10.80;99.90;;;;;;6338701;22;20075;-87
2023/03/13 06:17:10;;;;;;;5.55;1.95;;;10.80;99.90;;;;;;6336783;22;20011;-88
2023/03/13 06:19:36;;;;;;;3.88;1.73;;;10.90;99.90;;;;;;6336484;22;20014;-88
2023/03/13 06:22:02;;;;;;;9.20;2.05;;;10.90;99.90;;;;;;6310995;22;20025;-87
2023/03/13 06:24:28;;;;;;;3.83;1.33;;;10.90;99.90;;;;;;6311384;22;20017;-87
2023/03/13 06:26:56;;;;;;;7.63;2.17;;;10.90;99.90;;;;;;6338995;22;20372;-87
2023/03/13 06:29:23;;;;;;;5.95;1.85;;;11.00;99.90;;;;;;6338349;22;20468;-87
2023/03/13 06:31:50;;;;;;;5.47;1.52;;;11.00;99.90;;;;;;6337054;22;20021;-88
2023/03/13 06:34:16;;;;;;;9.88;2.30;;;10.80;99.90;;;;;;6337180;22;20090;-88
2023/03/13 06:36:42;;;;;;;6.18;1.67;;;10.80;99.90;;;;;;6337190;22;20449;-88
2023/03/13 06:39:09;;;;;;;6.53;2.55;;;11.00;99.90;;;;;;6338907;22;20025;-88
2023/03/13 06:41:38;;;;;;;8.98;2.30;;;10.90;99.90;;;;;;6337242;22;20023;-87
2023/03/13 06:44:06;;;;;;;8.48;2.25;;;10.90;99.90;;;;;;6338766;22;20014;-88
2023/03/13 06:46:32;;;;;;;9.73;2.25;;;10.90;99.90;;;;;;6336621;22;20014;-87
2023/03/13 06:48:59;;;;;;;8.05;1.33;;;10.90;99.90;;;;;;6338180;22;20028;-87
2023/03/13 06:51:25;;;;;;;4.78;1.33;;;11.00;99.90;;;;;;6338553;22;20025;-86
2023/03/13 06:53:51;;;;;;;6.50;1.88;;;10.90;99.90;;;;;;6336665;22;20018;-86
2023/03/13 06:56:28;;;;;;;6.97;1.80;;;10.90;99.90;;;;;;6337093;22;20026;-92
2023/03/13 06:58:54;;;;;;;10.48;2.45;;;11.30;99.90;;;;;;6338779;22;20087;-89
2023/03/13 07:01:37;;;;;;;6.25;1.95;;;10.70;99.90;;;;;;6336722;22;20372;-92
2023/03/13 07:04:13;;;;;;;7.90;1.85;;;11.40;99.90;;;;;;6336967;22;20014;-90
2023/03/13 07:07:29;;;;;;;;;;;;;;;;;;;;;
2023/03/13 07:10:23;;;;;;;5.18;1.80;;;11.00;99.90;;;;;;6264510;22;20068;-89
2023/03/13 07:16:34;;;;;;;12.13;2.67;;;11.10;99.90;;;;;;6127985;23;20026;-88
2023/03/13 07:19:28;;;;;;;;;;;;;;;;;;;;;
2023/03/13 07:22:27;;;;;;;;;;;11.10;99.90;;;;;;6128236;23;20021;-88
2023/03/13 07:25:27;;;;;;;5.80;1.83;;;11.10;99.90;;;;;;6128117;23;19979;-91
2023/03/13 07:28:08;;;;;;;5.93;2.00;;;11.30;99.90;;;;;;6152390;23;20029;-84
2023/03/13 07:30:51;;;;;;;9.00;2.25;;;11.30;99.90;;;;;;6128112;23;20018;-87
2023/03/13 07:33:18;;;;;;;5.43;2.22;;;11.30;99.90;;;;;;6128723;23;20100;-85
2023/03/13 07:35:51;;;;;;;7.65;2.03;;;11.30;99.90;;;;;;6103811;23;20467;-86
2023/03/13 07:38:22;;;;;;;8.60;2.17;;;11.40;99.90;;;;;;6152717;23;20025;-87
2023/03/13 07:40:50;;;;;;;4.03;1.48;;;11.40;99.90;;;;;;6128092;23;20014;-86
2023/03/13 07:43:16;;;;;;;5.13;2.13;;;11.40;99.90;;;;;;6127881;23;20442;-84
2023/03/13 07:46:00;;;;;;;8.43;1.80;;;11.40;99.90;;;;;;6152412;23;20084;-86
2023/03/13 07:48:32;;;;;;;8.18;2.65;;;11.40;99.90;;;;;;6157457;23;20021;-86
2023/03/13 07:50:59;;;;;;;5.45;1.38;;;11.40;99.90;;;;;;6157361;23;20016;-84
2023/03/13 07:53:25;;;;;;;302.90;197.68;;;11.40;99.90;;;;;;6278728;22;20023;-85
2023/03/13 07:55:57;;;;;;;3.70;1.17;;;11.40;99.90;;;;;;6280931;22;20018;-85
2023/03/13 07:58:23;;;;;;;6.57;1.65;;;11.40;99.90;;;;;;6309091;22;20082;-85
2023/03/13 08:00:50;;;;;;;9.27;2.08;;;11.40;99.90;;;;;;6282259;22;20007;-84
2023/03/13 08:03:16;;;;;;;5.53;1.58;;;11.90;99.90;;;;;;6309176;22;20035;-85
2023/03/13 08:05:41;;;;;;;7.95;1.63;;;11.30;99.90;;;;;;6309016;22;20405;-85
2023/03/13 08:08:07;;;;;;;10.38;1.85;;;11.40;99.90;;;;;;6309105;22;20070;-84
2023/03/13 08:10:36;;;;;;;5.55;1.42;;;11.40;99.90;;;;;;6308941;22;20530;-87
2023/03/13 08:13:02;;;;;;;4.28;1.33;;;11.40;99.90;;;;;;6281840;22;20017;-85
2023/03/13 08:15:28;;;;;;;6.15;1.50;;;11.40;99.90;;;;;;6309069;22;20015;-84
2023/03/13 08:17:57;;;;;;;5.40;1.67;;;11.40;99.90;;;;;;6281960;22;20019;-85
2023/03/13 08:20:23;;;;;;;5.88;1.45;;;11.40;99.90;;;;;;6335884;22;20330;-84
2023/03/13 08:22:49;;;;;;;6.18;1.30;;;11.50;99.90;;;;;;6340354;22;20010;-84
2023/03/13 08:25:16;;;;;;;2.78;1.00;;;11.50;99.90;;;;;;6340146;22;20025;-85
2023/03/13 08:27:42;;;;;;;8.80;1.40;;;11.60;99.90;;;;;;6340538;22;20011;-85
2023/03/13 08:30:08;;;;;;;3.95;1.00;;;11.70;99.90;;;;;;6338672;22;20053;-84
2023/03/13 08:32:37;;;;;;;7.50;1.08;;;11.80;99.90;;;;;;6340156;22;20109;-84
2023/03/13 08:35:04;;;;;;;4.55;0.90;;;11.80;99.90;;;;;;6312626;22;20398;-85
2023/03/13 08:37:30;;;;;;;5.03;0.88;;;12.00;99.90;;;;;;6312661;22;20018;-85
2023/03/13 08:39:56;;;;;;;3.83;0.90;;;12.10;99.90;;;;;;6338443;22;20101;-85
2023/03/13 08:42:22;;;;;;;5.65;0.82;;;12.10;99.90;;;;;;6338553;22;20348;-84
2023/03/13 08:44:48;;;;;;;5.30;1.10;;;12.20;99.90;;;;;;6338703;22;20080;-84
2023/03/13 08:47:17;;;;;;;6.97;0.90;;;12.30;99.90;;;;;;6338575;22;20018;-85
2023/03/13 08:49:43;;;;;;;3.55;0.88;;;12.40;99.90;;;;;;6337963;22;20022;-85
2023/03/13 08:52:09;;;;;;;2.35;0.65;;;12.50;99.90;;;;;;6340014;22;20046;-85
2023/03/13 08:54:35;;;;;;;2.80;0.90;;;12.60;99.90;;;;;;6340334;22;20023;-85
2023/03/13 08:57:04;;;;;;;3.00;1.17;;;12.70;99.90;;;;;;6340649;22;20022;-85
2023/03/13 08:59:30;;;;;;;5.47;1.13;;;12.90;99.90;;;;;;6339972;22;20011;-85
2023/03/13 09:01:59;;;;;;;3.28;0.80;;;12.90;99.90;;;;;;6338303;22;20019;-85
2023/03/13 09:04:24;;;;;;;4.65;0.77;;;12.90;99.90;;;;;;6340279;22;20050;-85
2023/03/13 09:06:50;;;;;;;2.95;0.65;;;12.80;99.90;;;;;;6340227;22;20015;-85
2023/03/13 09:09:16;;;;;;;5.20;0.90;;;13.00;99.90;;;;;;6338121;22;20025;-85
2023/03/13 09:11:42;;;;;;;2.38;1.00;;;13.00;99.90;;;;;;6340651;22;20018;-84
2023/03/13 09:14:09;;;;;;;5.32;0.50;;;13.10;99.90;;;;;;6338293;22;20367;-85
2023/03/13 09:16:37;;;;;;;3.33;0.80;;;13.10;99.90;;;;;;6338300;22;20352;-85
2023/03/13 09:19:03;;;;;;;9.35;1.00;;;13.10;99.90;;;;;;6339718;22;20042;-85
2023/03/13 09:21:33;;;;;;;4.10;0.57;;;13.10;99.90;;;;;;6339449;22;20100;-85
2023/03/13 09:24:00;;;;;;;2.08;0.60;;;13.10;99.90;;;;;;6338480;22;20036;-85
2023/03/13 09:26:27;;;;;;;3.83;0.55;;;13.10;99.90;;;;;;6338139;22;20029;-85
2023/03/13 09:28:53;;;;;;;3.42;0.75;;;13.00;99.90;;;;;;6338300;22;20200;-85
2023/03/13 09:31:25;;;;;;;4.50;0.70;;;13.10;99.90;;;;;;6337610;22;20016;-85
2023/03/13 09:33:51;;;;;;;5.30;1.15;;;13.30;99.90;;;;;;6340004;22;20079;-85
2023/03/13 09:36:22;;;;;;;5.05;1.10;;;13.10;99.90;;;;;;6339204;22;20011;-85
2023/03/13 09:38:49;;;;;;;5.10;0.70;;;13.30;99.90;;;;;;6339343;22;20015;-85
2023/03/13 09:42:12;;;;;;;2.78;0.70;;;13.30;99.90;;;;;;6339612;22;20019;-85
2023/03/13 09:45:01;;;;;;;5.78;0.90;;;13.20;99.90;;;;;;6188774;23;20095;-85
2023/03/13 09:48:27;;;;;;;3.03;0.60;;;13.00;99.90;;;;;;6188598;23;20079;-85
2023/03/13 09:51:14;;;;;;;5.13;0.80;;;13.00;99.90;;;;;;6094733;23;20030;-85
2023/03/13 09:53:52;;;;;;;7.20;0.90;;;12.90;99.90;;;;;;6095482;23;20026;-85
2023/03/13 09:56:24;;;;;;;5.75;0.93;;;13.00;99.90;;;;;;6071353;23;20025;-85
2023/03/13 09:59:01;;;;;;;8.60;1.00;;;13.00;99.90;;;;;;6071039;23;20089;-85
2023/03/13 10:01:30;;;;;;;7.32;1.13;;;13.00;99.90;;;;;;6070993;23;20022;-85
2023/03/13 10:04:13;;;;;;;7.35;1.00;;;13.10;99.90;;;;;;6095370;23;20014;-84
2023/03/13 10:06:42;;;;;;;8.20;1.20;;;13.10;99.90;;;;;;6095145;23;20029;-84
2023/03/13 10:09:22;;;;;;;5.82;1.20;;;13.20;99.90;;;;;;6070742;23;20504;-85
2023/03/13 10:12:04;;;;;;;6.60;1.20;;;13.30;99.90;;;;;;6070545;23;20062;-85
2023/03/13 10:14:36;;;;;;;11.27;2.30;;;13.30;99.90;;;;;;6091544;23;20023;-84
2023/03/13 10:17:31;;;;;;;5.97;1.02;;;13.50;99.90;;;;;;6218406;23;20012;-85
2023/03/13 10:20:21;;;;;;;5.15;1.20;;;13.60;99.90;;;;;;6153448;23;20021;-86
2023/03/13 10:22:51;;;;;;;9.75;1.00;;;13.70;99.90;;;;;;6193138;23;20026;-85
2023/03/13 10:25:24;;;;;;;7.40;1.17;;;13.80;99.90;;;;;;6243771;23;20012;-85
2023/03/13 10:27:54;;;;;;;9.40;0.88;;;13.80;99.90;;;;;;6243504;23;20095;-85
2023/03/13 10:30:31;;;;;;;10.38;1.50;;;13.90;99.90;;;;;;6243585;23;20099;-85
2023/03/13 10:33:16;;;;;;;4.50;1.15;;;14.10;99.90;;;;;;6243251;23;20012;-85
2023/03/13 10:35:43;;;;;;;8.20;1.20;;;14.20;99.90;;;;;;6243873;23;20020;-85
2023/03/13 10:38:18;;;;;;;7.60;1.42;;;14.30;99.90;;;;;;6243606;23;20020;-85
2023/03/13 10:40:55;;;;;;;;;;;14.30;99.90;;;;;;6218743;23;20027;-86
2023/03/13 10:43:21;;;;;;;;;;;14.30;99.90;;;;;;6218710;23;20345;-85
2023/03/13 10:45:47;;;;;;;11.13;1.23;;;14.40;99.90;;;;;;6218064;23;19911;-86
2023/03/13 10:48:21;;;;;;;10.32;1.55;;;14.50;99.90;;;;;;6218089;23;20142;-85
2023/03/13 10:50:49;;;;;;;7.55;1.30;;;14.60;99.90;;;;;;6217334;23;20012;-84
2023/03/13 10:53:30;;;;;;;7.80;1.60;;;14.80;99.90;;;;;;6243278;23;20099;-84
2023/03/13 10:56:12;;;;;;;7.38;1.00;;;14.80;99.90;;;;;;6221904;22;20016;-83
2023/03/13 10:58:49;;;;;;;9.70;1.13;;;14.90;99.90;;;;;;6337359;22;20019;-87
2023/03/13 11:01:17;;;;;;;7.78;1.08;;;14.90;99.90;;;;;;6310283;22;20030;-87
2023/03/13 11:03:45;;;;;;;8.68;1.80;;;14.80;99.90;;;;;;6337147;22;20026;-86
2023/03/13 11:06:25;;;;;;;11.63;1.60;;;15.00;99.90;;;;;;6336496;22;20025;-85
2023/03/13 11:09:12;;;;;;;5.65;1.25;;;14.90;99.90;;;;;;6338440;22;20018;-85
2023/03/13 11:12:10;;;;;;;9.90;1.17;;;15.00;99.90;;;;;;6336569;22;20137;-84
2023/03/13 11:14:36;;;;;;;13.90;1.52;;;15.10;99.90;;;;;;6187904;23;20057;-83
2023/03/13 11:17:36;;;;;;;9.15;1.17;;;15.10;99.90;;;;;;6187271;23;20471;-87
2023/03/13 11:20:14;;;;;;;4.68;0.80;;;15.10;99.90;;;;;;6212173;23;20024;-85
2023/03/13 11:23:03;;;;;;;10.10;1.17;;;15.10;99.90;;;;;;6212100;23;20028;-85
2023/03/13 11:25:38;;;;;;;9.88;1.08;;;15.20;99.90;;;;;;6162043;23;20087;-85
2023/03/13 11:28:40;;;;;;;6.10;1.25;;;15.20;99.90;;;;;;6186574;23;20052;-85
2023/03/13 11:31:12;;;;;;;6.72;1.27;;;15.20;99.90;;;;;;6213919;23;20012;-84
2023/03/13 11:33:54;;;;;;;12.95;0.80;;;15.20;99.90;;;;;;6189314;23;20013;-87
2023/03/13 11:36:52;;;;;;;4.90;0.75;;;15.20;99.90;;;;;;6188873;23;20363;-85
2023/03/13 11:39:31;;;;;;;2.92;0.68;;;15.20;99.90;;;;;;6188995;23;20063;-86
2023/03/13 11:42:02;;;;;;;5.10;0.95;;;15.10;99.90;;;;;;6214472;23;20012;-85
2023/03/13 11:44:43;;;;;;;5.20;1.27;;;15.10;99.90;;;;;;6214193;23;20012;-86
2023/03/13 11:47:11;;;;;;;5.32;0.70;;;15.10;99.90;;;;;;6188615;23;20028;-84
2023/03/13 11:49:59;;;;;;;4.60;0.65;;;15.10;99.90;;;;;;6214619;23;20020;-85
2023/03/13 11:52:46;;;;;;;3.67;0.70;;;15.10;99.90;;;;;;6319344;22;20348;-85
2023/03/13 11:55:20;;;;;;;7.40;1.08;;;15.20;99.90;;;;;;6338382;22;20025;-85
2023/03/13 11:58:17;;;;;;;5.20;0.87;;;15.30;99.90;;;;;;6312631;22;20019;-85
2023/03/13 12:00:59;;;;;;;6.05;1.10;;;15.30;99.90;;;;;;6338539;22;20319;-85
2023/03/13 12:03:39;;;;;;;4.50;0.80;;;15.30;99.90;;;;;;6339760;22;20404;-84
2023/03/13 12:06:21;;;;;;;3.42;0.70;;;15.20;99.90;;;;;;6312085;22;20046;-84
2023/03/13 12:08:54;;;;;;;12.63;1.40;;;15.20;99.90;;;;;;6338360;22;20023;-85
2023/03/13 12:11:27;;;;;;;4.15;0.63;;;15.10;99.90;;;;;;6339769;22;20026;-85
2023/03/13 12:13:58;;;;;;;33.00;29.80;;;15.00;99.90;;;;;;6339033;22;20018;-86
2023/03/13 12:16:40;;;;;;;7.07;0.93;;;15.10;99.90;;;;;;6338690;22;20090;-85
2023/03/13 12:19:11;;;;;;;5.63;0.98;;;15.30;99.90;;;;;;6339590;22;20015;-86
2023/03/13 12:21:45;;;;;;;8.60;0.85;;;15.40;99.90;;;;;;6338419;22;20019;-85
2023/03/13 12:24:33;;;;;;;11.77;1.98;;;15.50;99.90;;;;;;6338813;22;20420;-85
2023/03/13 12:27:09;;;;;;;11.55;1.08;;;15.50;99.90;;;;;;6311572;22;20019;-85
2023/03/13 12:30:00;;;;;;;9.40;1.30;;;15.60;99.90;;;;;;6339280;22;20023;-86
2023/03/13 12:40:06;;;;;;;13.77;1.38;;;15.80;99.90;;;;;;6339573;22;20017;-85
2023/03/13 12:43:16;;;;;;;7.03;1.20;;;15.70;99.90;;;;;;6339220;22;20322;-88
2023/03/13 12:45:56;;;;;;;12.13;1.40;;;15.60;99.90;;;;;;6312821;22;20023;-84
2023/03/13 12:48:51;;;;;;;14.20;1.25;;;15.80;99.90;;;;;;6337998;22;20014;-83
2023/03/13 12:51:35;;;;;;;9.45;1.25;;;15.50;99.90;;;;;;6339425;22;20015;-86
2023/03/13 12:54:13;;;;;;;12.18;1.10;;;15.60;99.90;;;;;;6338115;22;20388;-85
2023/03/13 12:56:51;;;;;;;12.65;1.42;;;15.50;99.90;;;;;;6339795;22;20010;-86
2023/03/13 12:59:35;;;;;;;11.57;1.10;;;15.50;99.90;;;;;;6334601;22;20334;-86
2023/03/13 13:02:12;;;;;;;10.90;2.25;;;15.70;99.90;;;;;;6337337;22;20069;-85
2023/03/13 13:04:44;;;;;;;8.77;1.25;;;15.70;99.90;;;;;;6337528;22;20014;-85
2023/03/13 13:07:33;;;;;;;8.35;1.38;;;15.80;99.90;;;;;;6337700;22;20022;-85
2023/03/13 13:10:08;;;;;;;13.05;1.33;;;15.90;99.90;;;;;;6337766;22;20019;-86
2023/03/13 13:12:45;;;;;;;8.35;1.50;;;15.80;99.90;;;;;;6337236;22;20033;-87
2023/03/13 13:15:26;;;;;;;9.95;1.50;;;15.80;99.90;;;;;;6337545;22;20018;-86
2023/03/13 13:17:54;;;;;;;12.35;1.33;;;15.80;99.90;;;;;;6339280;22;20018;-86
2023/03/13 13:20:34;;;;;;;8.60;1.52;;;15.90;99.90;;;;;;6336614;22;20030;-86
2023/03/13 13:23:25;;;;;;;14.80;1.55;;;16.00;99.90;;;;;;6339847;22;20007;-88
2023/03/13 13:25:54;;;;;;;10.27;1.33;;;16.00;99.90;;;;;;6339515;22;20014;-86
2023/03/13 13:28:29;;;;;;;8.55;1.20;;;16.00;99.90;;;;;;6337999;22;20050;-85
2023/03/13 13:30:55;;;;;;;11.13;1.73;;;15.90;99.90;;;;;;6337953;22;20018;-86
2023/03/13 13:33:29;;;;;;;14.13;2.00;;;15.80;99.90;;;;;;6312270;22;20073;-89
2023/03/13 13:36:20;;;;;;;9.85;2.65;;;15.80;99.90;;;;;;6339324;22;20388;-87
2023/03/13 13:38:52;;;;;;;12.38;1.70;;;15.60;99.90;;;;;;6337764;22;20061;-89
2023/03/13 13:41:20;;;;;;;10.57;1.67;;;15.50;99.90;;;;;;6311579;22;20094;-88
2023/03/13 13:43:51;;;;;;;11.98;2.17;;;15.70;99.90;;;;;;6336604;22;20018;-86
2023/03/13 13:46:31;;;;;;;10.90;1.48;;;15.70;99.90;;;;;;6311725;22;20019;-86
2023/03/13 13:49:26;;;;;;;12.25;1.27;;;15.60;99.90;;;;;;6336992;22;20045;-88
2023/03/13 13:52:01;;;;;;;8.68;1.10;;;15.60;99.90;;;;;;6337113;22;20064;-85
2023/03/13 13:54:40;;;;;;;15.13;1.40;;;15.60;99.90;;;;;;6310763;22;20022;-86
2023/03/13 13:57:17;;;;;;;8.15;1.17;;;15.60;99.90;;;;;;6337759;22;20060;-88
2023/03/13 13:59:53;;;;;;;6.97;0.93;;;15.60;99.90;;;;;;6337383;22;20108;-86
2023/03/13 14:02:47;;;;;;;18.42;2.50;;;15.60;99.90;;;;;;6337260;22;20014;-89
2023/03/13 14:05:30;;;;;;;10.65;1.40;;;15.60;99.90;;;;;;6338718;22;20075;-86
2023/03/13 14:07:58;;;;;;;12.00;1.48;;;15.50;99.90;;;;;;6338758;22;20022;-86
2023/03/13 14:10:45;;;;;;;8.13;1.30;;;15.50;99.90;;;;;;6336890;22;20064;-85
2023/03/13 14:13:18;;;;;;;11.57;1.92;;;15.50;99.90;;;;;;6339038;22;20021;-85
2023/03/13 14:15:48;;;;;;;12.02;1.30;;;15.50;99.90;;;;;;6336815;22;20393;-87
2023/03/13 14:18:29;;;;;;;6.82;1.70;;;15.40;99.90;;;;;;6336979;22;20536;-88
2023/03/13 14:21:12;;;;;;;11.57;1.48;;;15.20;99.90;;;;;;6337063;22;20026;-85
2023/03/13 14:23:48;;;;;;;15.05;1.60;;;15.30;99.90;;;;;;6338633;22;20049;-87
2023/03/13 14:26:23;;;;;;;12.48;2.20;;;15.30;99.90;;;;;;6337206;22;20059;-83
2023/03/13 14:28:54;;;;;;;15.45;1.90;;;15.10;99.90;;;;;;6336777;22;20023;-86
2023/03/13 14:31:28;;;;;;;11.00;1.95;;;15.10;99.90;;;;;;6337136;22;20053;-83
2023/03/13 14:34:00;;;;;;;15.75;1.50;;;15.20;99.90;;;;;;6337148;22;20015;-83
2023/03/13 14:36:28;;;;;;;13.48;1.63;;;15.10;99.90;;;;;;6337098;22;20014;-87